createdAt,value
2022-11-20T00:01:31.846Z,100469.40
2022-11-20T00:03:59.568Z,100469.20
2022-11-20T00:06:28.239Z,100475.20
2022-11-20T00:08:58.531Z,100480.60
2022-11-20T00:11:28.057Z,100475.80
2022-11-20T00:13:57.835Z,100476.60
2022-11-20T00:16:27.416Z,100476.00
2022-11-20T00:18:55.376Z,100471.80
2022-11-20T00:21:25.975Z,100473.40
2022-11-20T00:23:55.995Z,100471.40
2022-11-20T00:26:25.566Z,100463.80
2022-11-20T00:28:59.827Z,100463.40
2022-11-20T00:31:28.196Z,100464.60
2022-11-20T00:33:55.215Z,100463.00
2022-11-20T00:36:26.153Z,100464.80
2022-11-20T00:38:58.800Z,100464.00
2022-11-20T00:41:28.448Z,100462.60
2022-11-20T00:43:56.498Z,100463.40
2022-11-20T00:46:26.577Z,100468.40
2022-11-20T00:48:53.992Z,100470.40
2022-11-20T00:51:24.429Z,100467.20
2022-11-20T00:53:51.610Z,100466.20
2022-11-20T00:56:20.040Z,100472.20
2022-11-20T00:58:49.197Z,100470.60
2022-11-20T01:01:22.118Z,100470.40
2022-11-20T01:03:51.916Z,100474.20
2022-11-20T01:06:31.091Z,100474.40
2022-11-20T01:09:01.623Z,100474.20
2022-11-20T01:11:32.229Z,100473.20
2022-11-20T01:14:02.267Z,100472.60
2022-11-20T01:16:36.946Z,100472.80
2022-11-20T01:19:07.946Z,100471.60
2022-11-20T01:21:38.653Z,100471.00
2022-11-20T01:24:10.944Z,100473.80
2022-11-20T01:26:40.934Z,100471.00
2022-11-20T01:29:14.389Z,100467.00
2022-11-20T01:31:42.106Z,100465.00
2022-11-20T01:34:19.712Z,100463.40
2022-11-20T01:36:47.204Z,100468.40
2022-11-20T01:39:19.144Z,100468.60
2022-11-20T01:42:09.829Z,100466.40
2022-11-20T01:44:58.870Z,100471.40
2022-11-20T01:47:46.046Z,100473.40
2022-11-20T01:50:21.725Z,100466.60
2022-11-20T01:53:15.525Z,100472.00
2022-11-20T01:55:53.557Z,100466.80
2022-11-20T01:58:30.609Z,100465.00
2022-11-20T02:00:57.432Z,100464.20
2022-11-20T02:03:25.068Z,100461.80
2022-11-20T02:06:04.298Z,100467.00
2022-11-20T02:08:32.808Z,100466.60
2022-11-20T02:10:59.284Z,100466.20
2022-11-20T02:13:44.034Z,100462.60
2022-11-20T02:16:21.639Z,100467.40
2022-11-20T02:18:49.063Z,100463.40
2022-11-20T02:21:30.600Z,100461.00
2022-11-20T02:24:14.301Z,100462.40
2022-11-20T02:27:05.570Z,100457.80
2022-11-20T02:29:45.049Z,100456.20
2022-11-20T02:32:32.097Z,100460.40
2022-11-20T02:35:06.338Z,100466.00
2022-11-20T02:37:39.195Z,100456.40
2022-11-20T02:40:06.807Z,100458.00
2022-11-20T02:42:33.343Z,100456.60
2022-11-20T02:44:59.854Z,100454.60
2022-11-20T02:47:26.359Z,100455.60
2022-11-20T02:49:52.900Z,100457.20
2022-11-20T02:52:19.399Z,100460.60
2022-11-20T02:54:45.935Z,100459.40
2022-11-20T02:57:12.557Z,100453.60
2022-11-20T02:59:39.050Z,100454.80
2022-11-20T03:02:05.639Z,100454.20
2022-11-20T03:04:32.326Z,100451.20
2022-11-20T03:06:58.990Z,100447.40
2022-11-20T03:09:25.646Z,100441.80
2022-11-20T03:11:52.127Z,100446.80
2022-11-20T03:14:18.651Z,100447.60
2022-11-20T03:16:45.168Z,100443.60
2022-11-20T03:19:12.717Z,100438.80
2022-11-20T03:21:39.612Z,100431.40
2022-11-20T03:24:07.072Z,100432.60
2022-11-20T03:26:33.875Z,100434.60
2022-11-20T03:29:04.602Z,100435.60
2022-11-20T03:31:38.349Z,100432.40
2022-11-20T03:34:04.965Z,100430.80
2022-11-20T03:36:31.573Z,100431.00
2022-11-20T03:38:58.123Z,100432.60
2022-11-20T03:41:28.723Z,100435.20
2022-11-20T03:43:59.597Z,100428.20
2022-11-20T03:46:28.223Z,100429.20
2022-11-20T03:48:55.667Z,100426.40
2022-11-20T03:51:25.997Z,100423.40
2022-11-20T03:53:56.128Z,100422.20
2022-11-20T03:56:32.333Z,100414.80
2022-11-20T03:58:59.078Z,100416.00
2022-11-20T04:01:30.372Z,100418.00
2022-11-20T04:03:57.799Z,100413.40
2022-11-20T04:06:29.433Z,100417.80
2022-11-20T04:08:58.462Z,100418.60
2022-11-20T04:11:32.666Z,100417.80
2022-11-20T04:14:04.119Z,100412.00
2022-11-20T04:16:35.412Z,100406.60
2022-11-20T04:19:07.317Z,100407.80
2022-11-20T04:21:34.120Z,100406.80
2022-11-20T04:24:00.749Z,100406.80
2022-11-20T04:26:29.837Z,100407.00
2022-11-20T04:28:57.816Z,100410.80
2022-11-20T04:31:28.648Z,100407.00
2022-11-20T04:33:55.572Z,100409.60
2022-11-20T04:36:26.488Z,100409.00
2022-11-20T04:38:57.336Z,100411.40
2022-11-20T04:41:28.211Z,100402.20
2022-11-20T04:44:03.548Z,100408.80
2022-11-20T04:46:35.306Z,100411.00
2022-11-20T04:49:01.976Z,100411.00
2022-11-20T04:51:29.091Z,100403.00
2022-11-20T04:53:56.105Z,100405.60
2022-11-20T04:56:23.004Z,100401.20
2022-11-20T04:58:49.673Z,100399.40
2022-11-20T05:01:20.916Z,100400.20
2022-11-20T05:03:48.293Z,100397.20
2022-11-20T05:06:18.368Z,100396.00
2022-11-20T05:08:45.053Z,100400.20
2022-11-20T05:11:21.047Z,100401.20
2022-11-20T05:13:49.221Z,100395.20
2022-11-20T05:16:23.649Z,100398.40
2022-11-20T05:18:53.546Z,100397.20
2022-11-20T05:21:21.177Z,100393.00
2022-11-20T05:23:48.246Z,100395.60
2022-11-20T05:26:19.835Z,100386.40
2022-11-20T05:28:47.511Z,100382.00
2022-11-20T05:31:26.216Z,100380.60
2022-11-20T05:33:55.568Z,100379.20
2022-11-20T05:36:22.193Z,100378.80
2022-11-20T05:38:50.888Z,100375.40
2022-11-20T05:41:20.532Z,100369.60
2022-11-20T05:43:50.048Z,100372.60
2022-11-20T05:46:26.436Z,100375.00
2022-11-20T05:48:54.731Z,100373.20
2022-11-20T05:51:21.287Z,100369.40
2022-11-20T05:53:48.959Z,100374.00
2022-11-20T05:56:19.167Z,100372.20
2022-11-20T05:58:46.389Z,100367.40
2022-11-20T06:01:23.350Z,100364.80
2022-11-20T06:03:51.031Z,100361.20
2022-11-20T06:06:19.292Z,100363.40
2022-11-20T06:08:46.349Z,100358.00
2022-11-20T06:11:15.484Z,100359.80
2022-11-20T06:13:43.140Z,100362.00
2022-11-20T06:16:12.492Z,100364.80
2022-11-20T06:18:39.535Z,100365.40
2022-11-20T06:21:20.212Z,100360.20
2022-11-20T06:23:48.462Z,100361.80
2022-11-20T06:26:25.867Z,100364.20
2022-11-20T06:28:54.200Z,100357.60
2022-11-20T06:31:24.426Z,100354.60
2022-11-20T06:33:52.727Z,100353.80
2022-11-20T06:36:23.204Z,100357.20
2022-11-20T06:38:50.076Z,100358.60
2022-11-20T06:41:20.375Z,100356.60
2022-11-20T06:43:48.140Z,100355.40
2022-11-20T06:46:19.436Z,100357.80
2022-11-20T06:48:47.440Z,100358.60
2022-11-20T06:51:14.729Z,100360.20
2022-11-20T06:53:41.277Z,100362.40
2022-11-20T06:56:08.568Z,100368.40
2022-11-20T06:58:36.742Z,100369.80
2022-11-20T07:01:11.068Z,100361.20
2022-11-20T07:03:38.668Z,100364.20
2022-11-20T07:06:06.565Z,100357.80
2022-11-20T07:08:34.431Z,100364.60
2022-11-20T07:11:05.607Z,100364.40
2022-11-20T07:13:33.447Z,100364.40
2022-11-20T07:16:03.048Z,100362.40
2022-11-20T07:18:30.130Z,100361.40
2022-11-20T07:20:56.733Z,100357.20
2022-11-20T07:23:23.291Z,100362.40
2022-11-20T07:25:50.001Z,100363.00
2022-11-20T07:28:16.578Z,100368.20
2022-11-20T07:30:43.127Z,100366.20
2022-11-20T07:33:09.618Z,100361.20
2022-11-20T07:35:36.381Z,100359.60
2022-11-20T07:38:03.117Z,100357.60
2022-11-20T07:40:29.751Z,100355.40
2022-11-20T07:42:56.698Z,100354.00
2022-11-20T07:45:24.705Z,100349.60
2022-11-20T07:47:51.809Z,100343.60
2022-11-20T07:50:20.118Z,100344.20
2022-11-20T07:52:47.683Z,100340.40
2022-11-20T07:55:15.412Z,100338.40
2022-11-20T07:57:42.305Z,100340.40
2022-11-20T08:00:12.037Z,100338.60
2022-11-20T08:02:40.520Z,100338.00
2022-11-20T08:05:09.604Z,100336.80
2022-11-20T08:07:42.906Z,100340.00
2022-11-20T08:10:13.296Z,100329.80
2022-11-20T08:13:10.746Z,100322.40
2022-11-20T08:15:39.787Z,100327.60
2022-11-20T08:21:03.765Z,100327.80
2022-11-20T08:23:30.805Z,100328.00
2022-11-20T08:25:57.414Z,100323.00
2022-11-20T08:28:24.010Z,100332.40
2022-11-20T08:30:50.616Z,100332.20
2022-11-20T08:33:17.929Z,100328.80
2022-11-20T08:35:44.808Z,100323.80
2022-11-20T08:38:11.366Z,100333.60
2022-11-20T08:40:37.971Z,100330.60
2022-11-20T08:43:04.801Z,100333.20
2022-11-20T08:45:34.500Z,100321.20
2022-11-20T08:48:05.604Z,100323.80
2022-11-20T08:50:33.323Z,100318.40
2022-11-20T08:53:05.296Z,100317.80
2022-11-20T08:55:31.950Z,100312.20
2022-11-20T08:58:11.709Z,100307.60
2022-11-20T09:00:38.659Z,100306.80
2022-11-20T09:03:05.276Z,100307.00
2022-11-20T09:05:31.864Z,100305.00
2022-11-20T09:07:59.765Z,100300.80
2022-11-20T09:10:28.094Z,100297.80
2022-11-20T09:12:58.510Z,100302.60
2022-11-20T09:15:26.356Z,100298.20
2022-11-20T09:18:03.869Z,100301.80
2022-11-20T09:20:33.793Z,100299.80
2022-11-20T09:23:00.286Z,100298.00
2022-11-20T09:25:27.435Z,100293.80
2022-11-20T09:27:59.357Z,100289.80
2022-11-20T09:30:27.354Z,100282.80
2022-11-20T09:32:54.290Z,100286.40
2022-11-20T09:35:20.838Z,100281.40
2022-11-20T09:37:47.364Z,100275.80
2022-11-20T09:40:29.859Z,100275.80
2022-11-20T09:43:11.026Z,100275.00
2022-11-20T09:46:07.255Z,100274.20
2022-11-20T09:48:58.226Z,100269.80
2022-11-20T09:52:05.305Z,100270.20
2022-11-20T09:54:38.856Z,100272.00
2022-11-20T09:57:22.255Z,100268.80
2022-11-20T10:00:00.964Z,100269.00
2022-11-20T10:02:40.798Z,100263.20
2022-11-20T10:05:20.049Z,100260.40
2022-11-20T10:08:17.825Z,100258.40
2022-11-20T10:10:53.631Z,100256.60
2022-11-20T10:13:50.938Z,100258.40
2022-11-20T10:16:37.997Z,100257.60
2022-11-20T10:19:40.023Z,100254.40
2022-11-20T10:22:36.075Z,100260.00
2022-11-20T10:25:16.236Z,100249.00
2022-11-20T10:28:11.947Z,100257.40
2022-11-20T10:30:43.462Z,100253.00
2022-11-20T10:33:24.572Z,100254.40
2022-11-20T10:36:27.884Z,100248.00
2022-11-20T10:39:04.259Z,100246.80
2022-11-20T10:41:39.665Z,100242.00
2022-11-20T10:44:37.408Z,100249.20
2022-11-20T10:47:10.757Z,100246.80
2022-11-20T10:49:37.357Z,100246.20
2022-11-20T10:52:33.062Z,100243.00
2022-11-20T10:55:26.034Z,100236.60
2022-11-20T10:58:10.583Z,100233.20
2022-11-20T11:00:37.158Z,100228.40
2022-11-20T11:03:15.140Z,100225.60
2022-11-20T11:05:56.102Z,100231.00
2022-11-20T11:08:28.584Z,100229.60
2022-11-20T11:11:03.613Z,100226.20
2022-11-20T11:13:31.386Z,100224.60
2022-11-20T11:15:59.465Z,100226.60
2022-11-20T11:18:33.877Z,100225.40
2022-11-20T11:21:04.793Z,100221.60
2022-11-20T11:23:39.501Z,100228.60
2022-11-20T11:26:25.456Z,100225.00
2022-11-20T11:29:04.044Z,100218.60
2022-11-20T11:31:34.834Z,100219.20
2022-11-20T11:34:17.552Z,100212.60
2022-11-20T11:36:57.623Z,100207.00
2022-11-20T11:39:26.053Z,100207.60
2022-11-20T11:41:53.940Z,100208.80
2022-11-20T11:44:44.369Z,100206.60
2022-11-20T11:47:29.685Z,100203.00
2022-11-20T11:50:11.697Z,100200.40
2022-11-20T11:53:02.676Z,100198.60
2022-11-20T11:55:43.543Z,100198.20
2022-11-20T11:58:24.648Z,100194.60
2022-11-20T12:01:28.603Z,100187.40
2022-11-20T12:04:46.141Z,100178.80
2022-11-20T12:07:45.968Z,100180.40
2022-11-20T12:10:35.374Z,100173.00
2022-11-20T12:13:30.680Z,100167.80
2022-11-20T12:15:57.303Z,100165.20
2022-11-20T12:18:23.879Z,100166.40
2022-11-20T12:20:56.140Z,100161.80
2022-11-20T12:23:40.002Z,100157.80
2022-11-20T12:26:29.421Z,100162.60
2022-11-20T12:29:18.490Z,100162.60
2022-11-20T12:32:32.518Z,100160.80
2022-11-20T12:35:17.366Z,100161.60
2022-11-20T12:38:20.865Z,100151.20
2022-11-20T12:41:44.330Z,100151.20
2022-11-20T12:44:56.336Z,100145.80
2022-11-20T12:47:50.550Z,100144.40
2022-11-20T12:50:47.568Z,100138.60
2022-11-20T12:53:48.482Z,100135.40
2022-11-20T12:57:08.960Z,100132.00
2022-11-20T13:00:06.468Z,100132.00
2022-11-20T13:03:19.724Z,100127.60
2022-11-20T13:06:19.862Z,100122.00
2022-11-20T13:08:56.309Z,100114.60
2022-11-20T13:11:40.623Z,100113.80
2022-11-20T13:14:13.439Z,100118.40
2022-11-20T13:17:08.618Z,100114.80
2022-11-20T13:19:35.823Z,100107.60
2022-11-20T13:22:02.819Z,100109.00
2022-11-20T13:24:32.416Z,100107.40
2022-11-20T13:27:14.228Z,100109.80
2022-11-20T13:29:45.474Z,100104.40
2022-11-20T13:32:21.718Z,100101.80
2022-11-20T13:34:53.905Z,100107.80
2022-11-20T13:37:39.682Z,100104.20
2022-11-20T13:40:09.066Z,100105.20
2022-11-20T13:42:44.933Z,100103.20
2022-11-20T13:45:29.151Z,100101.60
2022-11-20T13:47:59.587Z,100096.80
2022-11-20T13:50:49.372Z,100097.80
2022-11-20T13:53:52.705Z,100095.00
2022-11-20T13:56:48.107Z,100096.00
2022-11-20T13:59:50.278Z,100096.60
2022-11-20T14:02:20.256Z,100087.20
2022-11-20T14:04:51.735Z,100085.60
2022-11-20T14:07:22.641Z,100082.00
2022-11-20T14:09:56.763Z,100080.80
2022-11-20T14:12:30.440Z,100081.60
2022-11-20T14:14:57.549Z,100083.60
2022-11-20T14:17:33.053Z,100080.40
2022-11-20T14:20:07.325Z,100070.60
2022-11-20T14:22:33.892Z,100078.60
2022-11-20T14:25:23.549Z,100075.80
2022-11-20T14:27:59.792Z,100063.80
2022-11-20T14:30:44.356Z,100063.80
2022-11-20T14:33:14.592Z,100059.00
2022-11-20T14:35:47.681Z,100067.20
2022-11-20T14:38:19.042Z,100062.80
2022-11-20T14:40:46.280Z,100060.60
2022-11-20T14:43:26.865Z,100064.00
2022-11-20T14:46:02.701Z,100060.20
2022-11-20T14:48:35.985Z,100055.80
2022-11-20T14:51:02.609Z,100054.40
2022-11-20T14:53:29.151Z,100047.00
2022-11-20T14:56:02.183Z,100048.20
2022-11-20T14:58:34.195Z,100051.20
2022-11-20T15:01:08.086Z,100046.20
2022-11-20T15:03:38.586Z,100043.00
2022-11-20T15:06:08.376Z,100042.00
2022-11-20T15:08:35.639Z,100042.60
2022-11-20T15:11:03.068Z,100036.80
2022-11-20T15:13:38.120Z,100034.00
2022-11-20T15:16:19.213Z,100028.60
2022-11-20T15:18:46.661Z,100026.40
2022-11-20T15:21:19.622Z,100028.00
2022-11-20T15:23:46.181Z,100028.60
2022-11-20T15:26:20.245Z,100030.60
2022-11-20T15:28:50.453Z,100030.60
2022-11-20T15:31:22.129Z,100026.40
2022-11-20T15:33:49.537Z,100020.00
2022-11-20T15:36:16.204Z,100016.00
2022-11-20T15:38:42.868Z,100010.80
2022-11-20T15:41:45.218Z,100010.20
2022-11-20T15:47:41.091Z,100000.00
2022-11-20T15:50:18.277Z,100001.60
2022-11-20T15:52:51.230Z,100007.80
2022-11-20T15:55:17.735Z,100003.00
2022-11-20T15:57:44.312Z,99990.80
2022-11-20T16:00:12.035Z,99993.40
2022-11-20T16:02:40.453Z,99989.60
2022-11-20T16:05:12.769Z,99983.60
2022-11-20T16:07:39.641Z,99990.20
2022-11-20T16:10:06.703Z,99981.00
2022-11-20T16:12:53.601Z,99979.80
2022-11-20T16:15:39.079Z,99976.40
2022-11-20T16:18:07.104Z,99980.60
2022-11-20T16:20:33.860Z,99975.40
2022-11-20T16:23:00.431Z,99971.40
2022-11-20T16:25:28.384Z,99968.80
2022-11-20T16:27:54.977Z,99970.20
2022-11-20T16:30:21.724Z,99962.80
2022-11-20T16:32:48.626Z,99969.60
2022-11-20T16:35:15.373Z,99969.00
2022-11-20T16:37:43.423Z,99968.00
2022-11-20T16:40:11.607Z,99961.40
2022-11-20T16:42:44.348Z,99959.60
2022-11-20T16:45:11.341Z,99961.00
2022-11-20T16:47:38.565Z,99953.00
2022-11-20T16:50:11.147Z,99950.40
2022-11-20T16:52:40.655Z,99958.20
2022-11-20T16:55:08.212Z,99957.20
2022-11-20T16:57:37.565Z,99957.40
2022-11-20T17:00:07.625Z,99957.60
2022-11-20T17:02:34.363Z,99959.40
2022-11-20T17:05:03.092Z,99959.20
2022-11-20T17:07:30.240Z,99957.60
2022-11-20T17:09:57.678Z,99957.40
2022-11-20T17:12:25.904Z,99952.40
2022-11-20T17:14:53.163Z,99960.80
2022-11-20T17:17:20.389Z,99955.40
2022-11-20T17:19:47.406Z,99954.40
2022-11-20T17:22:14.346Z,99954.20
2022-11-20T17:24:40.997Z,99954.80
2022-11-20T17:27:12.993Z,99953.20
2022-11-20T17:29:42.448Z,99950.20
2022-11-20T17:32:09.043Z,99939.20
2022-11-20T17:34:38.514Z,99941.40
2022-11-20T17:37:13.312Z,99940.40
2022-11-20T17:39:44.355Z,99940.00
2022-11-20T17:42:36.541Z,99932.60
2022-11-20T17:45:05.972Z,99929.40
2022-11-20T17:47:39.205Z,99925.60
2022-11-20T17:50:06.765Z,99926.80
2022-11-20T17:52:33.605Z,99923.00
2022-11-20T17:55:00.110Z,99925.40
2022-11-20T17:57:48.348Z,99919.20
2022-11-20T18:00:16.734Z,99916.40
2022-11-20T18:02:43.732Z,99914.60
2022-11-20T18:05:10.619Z,99911.80
2022-11-20T18:07:41.931Z,99910.80
2022-11-20T18:10:09.487Z,99910.20
2022-11-20T18:12:44.805Z,99906.60
2022-11-20T18:15:11.352Z,99898.20
2022-11-20T18:17:41.143Z,99899.80
2022-11-20T18:23:01.400Z,99898.00
2022-11-20T18:25:27.953Z,99897.60
2022-11-20T18:27:57.240Z,99893.40
2022-11-20T18:30:24.098Z,99895.20
2022-11-20T18:32:50.875Z,99893.40
2022-11-20T18:35:17.554Z,99886.00
2022-11-20T18:37:44.076Z,99887.60
2022-11-20T18:40:11.502Z,99893.40
2022-11-20T18:42:56.982Z,99888.60
2022-11-20T18:45:23.640Z,99883.20
2022-11-20T18:47:50.151Z,99882.40
2022-11-20T18:50:16.699Z,99882.20
2022-11-20T18:52:47.466Z,99883.40
2022-11-20T18:55:25.543Z,99884.60
2022-11-20T18:57:53.730Z,99880.00
2022-11-20T19:00:26.389Z,99872.40
2022-11-20T19:02:55.978Z,99881.20
2022-11-20T19:05:27.474Z,99874.80
2022-11-20T19:08:00.204Z,99875.60
2022-11-20T19:10:28.013Z,99874.20
2022-11-20T19:12:58.864Z,99872.00
2022-11-20T19:15:29.053Z,99873.60
2022-11-20T19:18:04.459Z,99861.20
2022-11-20T19:20:36.423Z,99860.40
2022-11-20T19:23:03.159Z,99864.00
2022-11-20T19:25:36.647Z,99864.40
2022-11-20T19:28:07.889Z,99869.40
2022-11-20T19:30:34.572Z,99870.40
2022-11-20T19:33:01.468Z,99868.60
2022-11-20T19:35:29.658Z,99870.40
2022-11-20T19:38:05.497Z,99868.40
2022-11-20T19:40:40.315Z,99872.60
2022-11-20T19:43:06.797Z,99866.00
2022-11-20T19:45:34.512Z,99868.20
2022-11-20T19:48:08.112Z,99866.80
2022-11-20T19:50:35.481Z,99863.80
2022-11-20T19:53:03.851Z,99865.20
2022-11-20T19:55:34.373Z,99864.20
2022-11-20T19:58:02.814Z,99865.40
2022-11-20T20:00:33.737Z,99869.00
2022-11-20T20:03:00.520Z,99868.80
2022-11-20T20:05:33.555Z,99865.60
2022-11-20T20:08:17.235Z,99870.00
2022-11-20T20:10:43.801Z,99866.20
2022-11-20T20:13:19.353Z,99867.40
2022-11-20T20:15:47.297Z,99868.60
2022-11-20T20:18:13.904Z,99863.00
2022-11-20T20:20:58.473Z,99860.00
2022-11-20T20:23:34.400Z,99866.60
2022-11-20T20:26:10.741Z,99865.40
2022-11-20T20:28:38.993Z,99869.60
2022-11-20T20:31:16.725Z,99873.20
2022-11-20T20:33:45.450Z,99870.60
2022-11-20T20:36:19.854Z,99875.40
2022-11-20T20:39:02.409Z,99869.80
2022-11-20T20:41:30.976Z,99865.00
2022-11-20T20:44:20.589Z,99870.00
2022-11-20T20:46:47.191Z,99866.20
2022-11-20T20:49:13.753Z,99870.80
2022-11-20T20:51:40.351Z,99865.20
2022-11-20T20:54:07.050Z,99867.20
2022-11-20T20:56:33.999Z,99870.60
2022-11-20T20:59:01.236Z,99870.80
2022-11-20T21:01:29.145Z,99871.60
2022-11-20T21:03:57.616Z,99869.20
2022-11-20T21:06:25.626Z,99862.60
2022-11-20T21:08:54.077Z,99868.00
2022-11-20T21:11:21.183Z,99867.60
2022-11-20T21:13:48.826Z,99870.00
2022-11-20T21:16:18.835Z,99865.00
2022-11-20T21:18:49.184Z,99868.00
2022-11-20T21:21:50.723Z,99869.60
2022-11-20T21:24:39.995Z,99867.20
2022-11-20T21:27:10.539Z,99862.40
2022-11-20T21:29:46.131Z,99865.60
2022-11-20T21:32:17.996Z,99860.60
2022-11-20T21:34:50.628Z,99856.40
2022-11-20T21:37:29.568Z,99864.80
2022-11-20T21:39:56.189Z,99865.80
2022-11-20T21:42:26.290Z,99868.00
2022-11-20T21:44:54.267Z,99862.00
2022-11-20T21:47:30.765Z,99859.60
2022-11-20T21:49:57.792Z,99858.60
2022-11-20T21:52:30.990Z,99856.20
2022-11-20T21:54:57.691Z,99855.80
2022-11-20T21:57:25.041Z,99857.60
2022-11-20T21:59:51.884Z,99862.40
2022-11-20T22:02:19.156Z,99856.00
2022-11-20T22:04:48.630Z,99857.40
2022-11-20T22:07:21.289Z,99857.80
2022-11-20T22:09:48.204Z,99854.20
2022-11-20T22:12:20.829Z,99856.00
2022-11-20T22:14:47.506Z,99854.80
2022-11-20T22:17:39.113Z,99861.00
2022-11-20T22:20:20.875Z,99849.60
2022-11-20T22:22:49.102Z,99847.00
2022-11-20T22:25:16.697Z,99849.60
2022-11-20T22:27:50.825Z,99842.60
2022-11-20T22:30:24.044Z,99846.20
2022-11-20T22:32:53.865Z,99844.60
2022-11-20T22:35:39.195Z,99846.20
2022-11-20T22:38:07.622Z,99847.40
2022-11-20T22:40:46.740Z,99843.00
2022-11-20T22:43:20.605Z,99843.80
2022-11-20T22:45:49.115Z,99836.40
2022-11-20T22:48:15.997Z,99839.20
2022-11-20T22:50:42.585Z,99846.20
2022-11-20T22:53:09.520Z,99843.00
2022-11-20T22:55:36.110Z,99835.40
2022-11-20T22:58:02.598Z,99836.20
2022-11-20T23:00:29.906Z,99826.80
2022-11-20T23:02:56.414Z,99830.80
2022-11-20T23:05:22.901Z,99826.40
2022-11-20T23:07:49.403Z,99829.40
2022-11-20T23:10:16.420Z,99824.40
2022-11-20T23:12:42.910Z,99825.40
2022-11-20T23:15:10.253Z,99824.00
2022-11-20T23:17:36.797Z,99823.00
2022-11-20T23:20:03.748Z,99824.00
2022-11-20T23:22:32.007Z,99825.80
2022-11-20T23:24:58.517Z,99818.00
2022-11-20T23:27:28.303Z,99813.80
2022-11-20T23:29:56.069Z,99814.40
2022-11-20T23:32:23.397Z,99815.40
2022-11-20T23:34:49.869Z,99814.60
2022-11-20T23:37:16.501Z,99812.80
2022-11-20T23:39:43.044Z,99812.20
2022-11-20T23:42:09.644Z,99819.00
2022-11-20T23:44:36.255Z,99816.40
2022-11-20T23:47:02.913Z,99816.00
2022-11-20T23:49:29.478Z,99810.40
2022-11-20T23:51:56.006Z,99812.40
2022-11-20T23:54:22.554Z,99797.20
2022-11-20T23:56:49.797Z,99792.80
2022-11-20T23:59:16.464Z,99793.40
